Time;durP1;ratioP1;P1;durP2;ratioP2;P2;SDS_P1;SDS_P2;PMS_P1;PMS_P2;Temp;Humidity;BMP_temperature;BMP_pressure;BME280_temperature;BME280_humidity;BME280_pressure;Samples;Min_cycle;Max_cycle;Signal;HPM_P1;HPM_P2
2023/01/11 00:02:33;;;;;;;10.43;7.75;;;22.10;96.90;;;;;;1892899;75;21685;-87
2023/01/11 00:05:04;;;;;;;10.40;7.75;;;22.10;97.00;;;;;;1929370;73;21115;-86
2023/01/11 00:07:35;;;;;;;11.03;9.03;;;22.10;96.90;;;;;;1920177;73;21190;-86
2023/01/11 00:10:10;;;;;;;10.65;8.13;;;22.10;96.70;;;;;;1889964;75;21087;-87
2023/01/11 00:12:41;;;;;;;10.90;8.80;;;22.10;96.50;;;;;;1929607;73;21181;-86
2023/01/11 00:15:13;;;;;;;11.73;10.25;;;22.00;96.60;;;;;;1910320;73;21155;-86
2023/01/11 00:17:44;;;;;;;13.93;10.68;;;22.00;97.20;;;;;;1909528;74;21147;-87
2023/01/11 00:20:16;;;;;;;10.68;7.58;;;22.00;96.70;;;;;;1903468;74;21171;-87
2023/01/11 00:22:47;;;;;;;7.95;5.58;;;22.00;96.60;;;;;;1923477;74;21132;-87
2023/01/11 00:25:18;;;;;;;6.47;5.42;;;22.00;96.60;;;;;;1894344;75;21071;-87
2023/01/11 00:27:54;;;;;;;8.73;6.22;;;;;;;;;;1914177;74;21132;-88
2023/01/11 00:30:25;;;;;;;11.50;7.78;;;22.00;96.70;;;;;;1859826;75;21230;-87
2023/01/11 00:32:57;;;;;;;8.90;6.50;;;22.00;97.20;;;;;;1901261;73;21137;-88
2023/01/11 00:35:31;;;;;;;8.00;5.30;;;21.90;97.10;;;;;;1907320;74;21151;-90
2023/01/11 00:38:42;;;;;;;8.60;5.83;;;21.90;97.70;;;;;;1858736;77;21194;-88
2023/01/11 00:40:41;;;;;;;8.20;5.87;;;22.10;99.30;;;;;;1852374;77;21174;-86
2023/01/11 00:48:50;;;;;;;8.28;5.45;;;22.00;99.90;;;;;;1911596;73;21897;-89
2023/01/11 00:51:23;;;;;;;8.25;5.65;;;21.90;99.90;;;;;;1866016;76;21515;-88
2023/01/11 00:53:56;;;;;;;8.23;5.15;;;;;;;;;;1870409;75;21252;-88
2023/01/11 00:56:28;;;;;;;5.70;4.90;;;;;;;;;;1905583;74;21088;-90
2023/01/11 00:59:10;;;;;;;6.65;5.47;;;;;;;;;;1853065;77;21139;-90
2023/01/11 01:01:41;;;;;;;8.38;5.53;;;;;;;;;;1830286;77;21213;-92
2023/01/11 01:04:13;;;;;;;5.30;3.83;;;;;;;;;;1858157;77;21255;-87
2023/01/11 01:06:47;;;;;;;4.35;3.15;;;21.60;97.80;;;;;;1864185;75;21159;-71
2023/01/11 01:09:19;;;;;;;3.58;3.02;;;21.60;98.80;;;;;;1923319;73;21064;-70
2023/01/11 01:11:50;;;;;;;4.85;3.37;;;21.50;99.20;;;;;;1916189;73;21055;-70
2023/01/11 01:14:28;;;;;;;4.15;2.90;;;21.40;99.30;;;;;;1856463;76;21173;-70
2023/01/11 01:17:08;;;;;;;3.87;3.00;;;21.30;99.50;;;;;;1906901;73;21175;-70
2023/01/11 01:19:39;;;;;;;5.03;3.67;;;21.30;99.50;;;;;;1843322;77;21179;-71
2023/01/11 01:22:11;;;;;;;3.42;2.70;;;21.30;99.80;;;;;;1857085;77;21076;-70
2023/01/11 01:24:42;;;;;;;5.50;3.85;;;21.30;99.60;;;;;;1913354;73;21124;-70
2023/01/11 01:27:16;;;;;;;4.70;3.52;;;21.20;99.80;;;;;;1858553;76;21434;-70
2023/01/11 01:29:46;;;;;;;6.20;4.55;;;21.20;99.90;;;;;;1908331;74;21130;-72
2023/01/11 01:32:17;;;;;;;5.10;3.58;;;21.20;99.90;;;;;;1914669;74;21072;-70
2023/01/11 01:34:48;;;;;;;4.33;3.58;;;21.20;99.90;;;;;;1850440;76;21092;-70
2023/01/11 01:37:19;;;;;;;5.80;3.92;;;21.20;99.90;;;;;;1911072;73;21140;-71
2023/01/11 01:39:50;;;;;;;6.92;5.42;;;21.20;99.90;;;;;;1856061;77;21557;-71
2023/01/11 01:42:23;;;;;;;5.30;4.10;;;21.20;99.90;;;;;;1904599;73;21146;-71
2023/01/11 01:45:05;;;;;;;8.53;5.37;;;21.20;99.90;;;;;;1911912;73;21083;-69
2023/01/11 01:47:42;;;;;;;3.95;3.20;;;21.20;99.90;;;;;;1840705;77;21227;-74
2023/01/11 01:50:24;;;;;;;5.50;3.52;;;21.20;99.90;;;;;;1900785;73;21507;-73
2023/01/11 01:52:58;;;;;;;5.15;3.90;;;21.20;99.90;;;;;;1855724;76;21159;-73
2023/01/11 01:55:34;;;;;;;4.60;3.42;;;21.20;99.90;;;;;;1863343;75;21116;-71
2023/01/11 01:58:08;;;;;;;4.37;3.08;;;21.20;99.90;;;;;;1911845;73;21144;-72
2023/01/11 02:00:44;;;;;;;4.00;3.60;;;21.20;99.90;;;;;;1859357;77;21135;-72
2023/01/11 02:03:18;;;;;;;5.62;4.20;;;21.20;99.90;;;;;;1857666;77;21093;-70
2023/01/11 02:05:50;;;;;;;6.47;4.28;;;21.20;99.90;;;;;;1912553;73;21108;-72
2023/01/11 02:08:33;;;;;;;5.42;4.05;;;21.20;99.90;;;;;;1845160;77;21193;-72
2023/01/11 02:11:28;;;;;;;5.40;3.95;;;21.20;99.90;;;;;;1834202;77;21611;-71
2023/01/11 02:13:44;;;;;;;5.12;3.45;;;21.30;99.90;;;;;;1915398;73;21148;-70
2023/01/11 02:16:09;;;;;;;4.45;3.27;;;21.30;99.90;;;;;;1907081;73;21127;-72
2023/01/11 02:18:41;;;;;;;8.98;5.08;;;21.30;99.90;;;;;;1826458;77;21128;-71
2023/01/11 02:21:29;;;;;;;6.65;4.25;;;21.30;99.90;;;;;;1927838;73;21204;-71
2023/01/11 02:24:23;;;;;;;5.25;3.62;;;21.30;99.90;;;;;;1749252;81;21184;-70
2023/01/11 02:27:08;;;;;;;4.65;3.30;;;21.30;99.90;;;;;;1744280;78;21155;-71
2023/01/11 02:29:47;;;;;;;7.50;3.37;;;21.30;99.90;;;;;;1921159;73;21056;-72
2023/01/11 02:32:33;;;;;;;4.22;2.80;;;21.30;99.90;;;;;;1900526;73;21630;-70
2023/01/11 02:35:12;;;;;;;4.62;3.20;;;21.40;99.90;;;;;;1892279;74;21213;-73
2023/01/11 02:38:01;;;;;;;5.40;3.15;;;21.30;99.90;;;;;;1862921;73;21115;-72
2023/01/11 02:40:41;;;;;;;3.87;2.87;;;21.40;99.90;;;;;;1920131;73;21676;-71
2023/01/11 02:46:12;;;;;;;5.75;3.50;;;21.50;99.90;;;;;;1918414;73;21158;-73
2023/01/11 02:48:48;;;;;;;4.67;3.62;;;21.50;99.90;;;;;;1911004;73;21583;-72
2023/01/11 02:51:25;;;;;;;7.67;4.10;;;21.60;99.90;;;;;;1896254;75;21188;-70
2023/01/11 02:53:56;;;;;;;;;;;21.60;99.90;;;;;;1867723;75;21190;-73
2023/01/11 02:56:31;;;;;;;4.35;3.60;;;21.60;99.90;;;;;;1913931;73;20381;-71
2023/01/11 02:59:04;;;;;;;5.03;3.77;;;21.60;99.90;;;;;;1912225;73;21135;-71
2023/01/11 03:01:50;;;;;;;6.60;4.50;;;21.60;99.90;;;;;;1915890;73;21119;-71
2023/01/11 03:04:32;;;;;;;4.60;3.33;;;21.70;99.90;;;;;;1914704;73;21569;-73
2023/01/11 03:07:25;;;;;;;4.25;3.30;;;21.70;99.90;;;;;;1889716;74;21134;-73
2023/01/11 03:10:18;;;;;;;4.10;2.75;;;21.70;99.90;;;;;;1915083;73;21225;-73
2023/01/11 03:13:00;;;;;;;4.83;3.22;;;21.70;99.90;;;;;;1917581;73;21096;-74
2023/01/11 03:16:02;;;;;;;3.62;3.12;;;21.70;99.90;;;;;;1912820;73;21077;-71
2023/01/11 03:18:55;;;;;;;6.65;3.35;;;21.70;99.90;;;;;;1857932;74;21264;-71
2023/01/11 03:21:50;;;;;;;4.25;3.15;;;21.70;99.90;;;;;;1913490;74;21139;-70
2023/01/11 03:24:29;;;;;;;2.98;2.55;;;21.70;99.90;;;;;;1921062;73;21189;-72
2023/01/11 03:27:36;;;;;;;3.37;2.50;;;21.70;99.90;;;;;;1925009;73;21188;-72
2023/01/11 03:32:55;;;;;;;3.40;2.80;;;21.70;99.90;;;;;;1898915;74;21152;-73
2023/01/11 03:35:40;;;;;;;3.17;2.50;;;21.70;99.90;;;;;;1854413;75;21638;-70
2023/01/11 03:38:21;;;;;;;6.20;3.47;;;21.70;99.90;;;;;;1859053;75;21069;-72
2023/01/11 03:40:58;;;;;;;2.90;2.33;;;21.70;99.90;;;;;;1852751;76;21134;-71
2023/01/11 03:43:31;;;;;;;3.33;2.83;;;21.70;99.90;;;;;;1850533;75;21145;-69
2023/01/11 03:46:10;;;;;;;3.00;2.52;;;21.70;99.90;;;;;;1853834;76;21159;-70
2023/01/11 03:48:46;;;;;;;2.92;2.47;;;21.70;99.90;;;;;;1858178;75;21201;-70
2023/01/11 03:51:20;;;;;;;3.90;3.03;;;21.70;99.90;;;;;;1859973;76;21196;-71
2023/01/11 03:53:55;;;;;;;2.55;2.30;;;21.70;99.90;;;;;;1896244;74;21156;-71
2023/01/11 03:56:43;;;;;;;3.67;2.60;;;21.70;99.90;;;;;;1895656;74;21086;-71
2023/01/11 03:59:16;;;;;;;3.10;2.50;;;21.80;99.90;;;;;;1762690;77;21146;-70
2023/01/11 04:01:47;;;;;;;2.95;2.47;;;21.80;99.90;;;;;;1853581;75;21115;-72
2023/01/11 04:04:19;;;;;;;3.05;2.42;;;21.80;99.90;;;;;;1853168;76;21503;-72
2023/01/11 04:06:50;;;;;;;2.75;2.02;;;21.80;99.90;;;;;;1853306;75;21144;-71
2023/01/11 04:09:21;;;;;;;2.50;1.98;;;21.80;99.90;;;;;;1856170;75;21199;-72
2023/01/11 04:11:53;;;;;;;2.70;2.33;;;21.80;99.90;;;;;;1861761;75;21639;-71
2023/01/11 04:14:24;;;;;;;4.05;2.85;;;21.80;99.90;;;;;;1855163;75;21149;-70
2023/01/11 04:16:55;;;;;;;3.40;2.40;;;21.80;99.90;;;;;;1861363;76;21177;-70
2023/01/11 04:19:27;;;;;;;4.28;3.08;;;21.90;99.90;;;;;;1861481;75;21118;-73
2023/01/11 04:21:59;;;;;;;3.20;2.90;;;21.90;99.90;;;;;;1858881;75;21166;-72
2023/01/11 04:24:30;;;;;;;2.87;2.30;;;21.90;99.90;;;;;;1860074;75;21670;-71
2023/01/11 04:27:19;;;;;;;2.92;2.02;;;21.90;99.90;;;;;;1861224;75;21081;-72
2023/01/11 04:29:50;;;;;;;3.25;2.40;;;21.90;99.90;;;;;;1866686;75;21206;-71
2023/01/11 04:32:22;;;;;;;2.80;2.50;;;21.90;99.90;;;;;;1854425;75;21087;-71
2023/01/11 04:34:58;;;;;;;3.52;1.98;;;21.90;99.90;;;;;;1858134;75;21206;-71
2023/01/11 04:37:25;;;;;;;3.15;1.70;;;21.90;99.90;;;;;;1821965;77;21160;-72
2023/01/11 04:40:01;;;;;;;5.10;2.30;;;22.00;99.90;;;;;;1865134;75;21257;-71
2023/01/11 04:42:32;;;;;;;3.58;2.30;;;22.00;99.90;;;;;;1816401;77;21171;-71
2023/01/11 04:45:07;;;;;;;4.15;2.75;;;22.00;99.90;;;;;;1889537;74;21123;-71
2023/01/11 04:47:38;;;;;;;3.05;1.72;;;22.00;99.90;;;;;;1891344;74;21092;-71
2023/01/11 04:50:10;;;;;;;3.02;1.85;;;22.00;99.90;;;;;;1884450;74;21152;-70
2023/01/11 04:52:43;;;;;;;3.92;1.77;;;22.00;99.90;;;;;;1863952;74;21938;-70
2023/01/11 04:55:14;;;;;;;2.87;2.20;;;22.00;99.90;;;;;;1893905;74;21118;-70
2023/01/11 04:57:47;;;;;;;9.23;3.67;;;22.00;99.90;;;;;;1890500;74;21186;-72
2023/01/11 05:00:22;;;;;;;3.45;2.30;;;22.00;99.90;;;;;;1891288;74;21684;-72
2023/01/11 05:02:53;;;;;;;3.87;2.35;;;22.00;99.90;;;;;;1893680;74;21150;-70
2023/01/11 05:05:29;;;;;;;5.90;3.00;;;22.00;99.90;;;;;;1886513;74;21224;-70
2023/01/11 05:08:07;;;;;;;3.83;2.37;;;22.00;99.90;;;;;;1881664;74;21067;-70
2023/01/11 05:10:38;;;;;;;3.45;2.50;;;21.90;99.90;;;;;;1883804;74;21217;-71
2023/01/11 05:13:12;;;;;;;2.42;1.85;;;21.90;99.90;;;;;;1895166;74;21237;-71
2023/01/11 05:15:43;;;;;;;2.45;1.62;;;21.90;99.90;;;;;;1886200;74;21244;-71
2023/01/11 05:18:18;;;;;;;3.55;1.90;;;22.00;99.90;;;;;;1888803;74;21433;-73
2023/01/11 05:20:52;;;;;;;2.83;1.40;;;22.00;99.90;;;;;;1875434;74;21177;-73
2023/01/11 05:23:32;;;;;;;2.40;1.87;;;22.00;99.90;;;;;;1896966;74;21640;-73
2023/01/11 05:26:00;;;;;;;3.92;1.98;;;22.00;99.90;;;;;;1846664;77;21124;-71
2023/01/11 05:28:33;;;;;;;4.65;2.17;;;22.00;99.90;;;;;;1894274;74;21088;-70
2023/01/11 05:31:04;;;;;;;2.08;1.45;;;22.00;99.90;;;;;;1822151;77;21102;-72
2023/01/11 05:33:36;;;;;;;3.10;1.65;;;22.00;99.90;;;;;;1855324;76;21214;-72
2023/01/11 05:36:10;;;;;;;3.08;1.90;;;22.00;99.90;;;;;;1834297;76;21101;-73
2023/01/11 05:38:41;;;;;;;3.30;2.40;;;22.00;99.90;;;;;;1833590;77;21136;-70
2023/01/11 05:41:12;;;;;;;9.53;7.25;;;22.00;99.90;;;;;;1836751;77;21105;-72
2023/01/11 05:46:36;;;;;;;13.25;10.65;;;22.00;99.90;;;;;;1816184;77;21235;-71
2023/01/11 05:49:09;;;;;;;7.28;5.67;;;22.00;99.90;;;;;;1851631;76;22053;-71
2023/01/11 05:51:41;;;;;;;7.35;3.17;;;22.00;99.90;;;;;;1847485;76;21196;-71
2023/01/11 05:54:14;;;;;;;3.90;2.50;;;21.90;99.90;;;;;;1806475;77;21139;-70
2023/01/11 05:56:45;;;;;;;3.45;2.20;;;21.90;99.90;;;;;;1824478;77;21211;-71
2023/01/11 05:59:18;;;;;;;4.55;1.90;;;21.90;99.90;;;;;;1843370;76;21767;-71
2023/01/11 06:01:50;;;;;;;4.12;1.80;;;21.90;99.90;;;;;;1834202;76;21173;-72
2023/01/11 06:04:21;;;;;;;2.47;1.77;;;21.90;99.90;;;;;;1838853;76;21481;-70
2023/01/11 06:06:54;;;;;;;2.85;1.60;;;21.90;99.90;;;;;;1850860;76;21160;-71
2023/01/11 06:09:25;;;;;;;2.72;1.62;;;21.90;99.90;;;;;;1866919;75;21214;-70
2023/01/11 06:11:58;;;;;;;3.45;2.02;;;21.90;99.90;;;;;;1862354;75;21199;-71
2023/01/11 06:14:31;;;;;;;2.95;1.92;;;21.90;99.90;;;;;;1859375;75;21136;-71
2023/01/11 06:17:03;;;;;;;3.02;1.60;;;21.90;99.90;;;;;;1859869;75;21207;-68
2023/01/11 06:19:41;;;;;;;2.10;1.70;;;21.90;99.90;;;;;;1867159;75;21462;-70
2023/01/11 06:22:08;;;;;;;4.75;2.00;;;21.90;99.90;;;;;;1867093;75;21088;-69
2023/01/11 06:24:40;;;;;;;2.65;1.90;;;21.90;99.90;;;;;;1861223;75;21068;-71
2023/01/11 06:27:13;;;;;;;1.80;1.40;;;21.90;99.90;;;;;;1861108;75;21197;-72
2023/01/11 06:29:44;;;;;;;2.33;1.60;;;21.90;99.90;;;;;;1860862;75;21082;-72
2023/01/11 06:32:15;;;;;;;3.27;2.17;;;21.90;99.90;;;;;;1849540;75;21135;-72
2023/01/11 06:34:48;;;;;;;2.98;1.75;;;21.90;99.90;;;;;;1865013;75;21124;-72
2023/01/11 06:37:21;;;;;;;3.02;1.20;;;22.00;99.90;;;;;;1860165;76;21561;-72
2023/01/11 06:39:53;;;;;;;2.20;1.30;;;21.90;99.90;;;;;;1854194;76;21164;-72
2023/01/11 06:42:24;;;;;;;3.27;2.05;;;21.90;99.90;;;;;;1847306;76;21165;-70
2023/01/11 06:44:55;;;;;;;1.70;1.00;;;21.90;99.90;;;;;;1825192;77;21551;-70
2023/01/11 06:47:33;;;;;;;2.70;1.60;;;21.90;99.90;;;;;;1818648;77;21266;-70
2023/01/11 06:50:01;;;;;;;2.10;1.47;;;22.00;99.90;;;;;;1820173;77;21553;-71
2023/01/11 06:52:46;;;;;;;3.35;1.80;;;22.00;99.90;;;;;;1855906;76;22306;-70
2023/01/11 06:55:20;;;;;;;3.22;1.60;;;22.00;99.90;;;;;;1858465;76;21144;-72
2023/01/11 06:57:51;;;;;;;2.67;1.17;;;22.10;99.90;;;;;;1865634;75;21171;-72
2023/01/11 07:00:26;;;;;;;6.12;5.40;;;22.10;99.90;;;;;;1865444;75;21145;-72
2023/01/11 07:02:59;;;;;;;4.05;3.20;;;22.10;99.90;;;;;;1862736;75;21154;-73
2023/01/11 07:05:31;;;;;;;3.17;1.32;;;22.10;99.90;;;;;;1871529;75;21210;-72
2023/01/11 07:08:03;;;;;;;2.42;1.30;;;22.10;99.90;;;;;;1868544;75;21152;-72
2023/01/11 07:10:34;;;;;;;2.15;1.47;;;22.10;99.90;;;;;;1868939;75;21169;-71
2023/01/11 07:13:05;;;;;;;3.42;2.10;;;22.10;99.90;;;;;;1876574;75;21169;-73
2023/01/11 07:15:37;;;;;;;3.37;1.92;;;22.10;99.90;;;;;;1864512;75;21158;-72
2023/01/11 07:18:09;;;;;;;4.20;3.65;;;22.20;99.90;;;;;;1861945;75;21151;-71
2023/01/11 07:20:42;;;;;;;2.87;2.20;;;22.10;99.90;;;;;;1862297;75;21198;-70
2023/01/11 07:23:14;;;;;;;2.02;1.07;;;22.10;99.90;;;;;;1870719;75;21574;-71
2023/01/11 07:25:47;;;;;;;1.77;0.80;;;22.10;99.90;;;;;;1871087;75;21137;-71
2023/01/11 07:28:18;;;;;;;1.70;0.90;;;22.10;99.90;;;;;;1863963;75;21188;-71
2023/01/11 07:30:52;;;;;;;2.37;1.15;;;22.10;99.90;;;;;;1862314;75;21114;-71
2023/01/11 07:33:26;;;;;;;1.62;1.07;;;22.10;99.90;;;;;;1864369;75;21170;-71
2023/01/11 07:35:59;;;;;;;2.65;1.07;;;22.10;99.90;;;;;;1837877;76;21602;-70
2023/01/11 07:38:30;;;;;;;1.50;0.90;;;22.10;99.90;;;;;;1867543;75;21674;-71
2023/01/11 07:43:10;;;;;;;1.75;1.02;;;22.20;99.90;;;;;;1873815;75;21170;-69
2023/01/11 07:43:35;;;;;;;2.02;1.30;;;22.20;99.90;;;;;;1870035;75;21682;-73
2023/01/11 07:46:07;;;;;;;2.02;0.90;;;22.20;99.90;;;;;;1872973;75;21131;-71
2023/01/11 07:48:42;;;;;;;4.53;1.40;;;22.20;99.90;;;;;;1852027;76;21085;-70
2023/01/11 07:51:22;;;;;;;1.60;1.00;;;22.20;99.90;;;;;;1850401;76;21188;-71
2023/01/11 07:53:47;;;;;;;1.60;1.02;;;22.20;99.90;;;;;;1853365;76;21226;-71
2023/01/11 07:56:20;;;;;;;1.67;1.20;;;22.20;99.90;;;;;;1827114;77;21234;-72
2023/01/11 07:58:58;;;;;;;2.33;1.20;;;22.20;99.90;;;;;;1857018;76;21286;-69
2023/01/11 08:01:30;;;;;;;2.22;1.20;;;22.20;99.90;;;;;;1831016;77;21187;-71
2023/01/11 08:04:04;;;;;;;2.15;1.17;;;22.30;99.90;;;;;;1858987;76;21093;-70
2023/01/11 08:06:36;;;;;;;1.75;1.17;;;22.20;99.90;;;;;;1838311;76;21321;-73
2023/01/11 08:09:07;;;;;;;2.02;1.50;;;22.20;99.90;;;;;;1855969;76;21070;-71
2023/01/11 08:14:41;;;;;;;2.77;2.05;;;22.20;99.90;;;;;;1825287;77;21516;-70
2023/01/11 08:17:15;;;;;;;4.30;2.00;;;22.20;99.90;;;;;;1855175;75;21193;-70
2023/01/11 08:19:46;;;;;;;2.87;1.90;;;22.30;99.90;;;;;;1871027;75;21205;-69
2023/01/11 08:22:17;;;;;;;3.80;2.00;;;22.30;99.90;;;;;;1859918;75;21140;-70
2023/01/11 08:24:48;;;;;;;6.28;2.42;;;22.20;99.90;;;;;;1864443;75;21167;-69
2023/01/11 08:27:22;;;;;;;2.70;1.80;;;22.20;99.90;;;;;;1849511;76;21249;-70
2023/01/11 08:29:54;;;;;;;3.22;1.90;;;22.30;99.90;;;;;;1823448;77;21095;-70
2023/01/11 08:32:30;;;;;;;2.67;2.00;;;22.20;99.90;;;;;;1821455;77;21153;-71
2023/01/11 08:35:02;;;;;;;4.12;2.45;;;22.20;99.90;;;;;;1870716;75;21650;-71
2023/01/11 08:37:34;;;;;;;2.20;1.40;;;22.30;99.90;;;;;;1879187;75;21138;-71
2023/01/11 08:40:05;;;;;;;3.47;1.57;;;22.20;99.90;;;;;;1861426;76;21661;-71
2023/01/11 08:42:36;;;;;;;2.30;1.72;;;22.30;99.90;;;;;;1856079;75;21563;-72
2023/01/11 08:45:08;;;;;;;3.12;1.92;;;22.20;99.90;;;;;;1858031;75;21183;-72
2023/01/11 08:47:40;;;;;;;2.45;1.70;;;22.30;99.90;;;;;;1854130;75;22208;-72
2023/01/11 08:50:12;;;;;;;2.95;1.80;;;22.20;99.90;;;;;;1822658;77;21160;-71
2023/01/11 08:52:43;;;;;;;3.45;1.60;;;22.20;99.90;;;;;;1852053;76;21147;-72
2023/01/11 08:55:15;;;;;;;2.98;1.40;;;22.20;99.90;;;;;;1849782;75;21064;-71
2023/01/11 08:57:48;;;;;;;2.33;1.50;;;22.20;99.90;;;;;;1849217;75;21165;-70
2023/01/11 09:00:20;;;;;;;3.05;1.20;;;22.20;99.90;;;;;;1855776;75;21155;-69
2023/01/11 09:02:51;;;;;;;2.75;1.70;;;22.20;99.90;;;;;;1854420;75;21073;-69
2023/01/11 09:05:23;;;;;;;2.95;1.80;;;22.20;99.90;;;;;;1823830;77;21135;-70
2023/01/11 09:07:57;;;;;;;2.55;1.60;;;22.20;99.90;;;;;;1861961;75;21124;-70
2023/01/11 09:10:28;;;;;;;2.72;1.80;;;22.30;99.90;;;;;;1856844;75;21092;-70
2023/01/11 09:13:00;;;;;;;5.12;2.83;;;22.30;99.90;;;;;;1849270;75;21133;-71
2023/01/11 09:15:37;;;;;;;2.75;1.92;;;22.30;99.90;;;;;;1856242;75;21183;-69
2023/01/11 09:18:09;;;;;;;3.00;2.08;;;22.30;99.90;;;;;;1860274;75;21155;-70
2023/01/11 09:20:41;;;;;;;3.30;2.85;;;22.30;99.90;;;;;;1839067;77;21341;-69
2023/01/11 09:23:12;;;;;;;4.72;3.35;;;22.30;99.90;;;;;;1854310;76;21134;-69
2023/01/11 09:25:43;;;;;;;5.47;3.30;;;22.30;99.90;;;;;;1858660;75;21171;-70
2023/01/11 09:28:15;;;;;;;3.02;2.30;;;22.30;99.90;;;;;;1858707;75;21315;-69
2023/01/11 09:30:46;;;;;;;1.90;1.60;;;22.30;99.90;;;;;;1896452;74;21079;-70
2023/01/11 09:33:18;;;;;;;4.20;2.05;;;22.30;99.90;;;;;;1858443;75;21079;-71
2023/01/11 09:35:57;;;;;;;3.98;2.00;;;22.30;99.90;;;;;;1891574;74;21119;-71
2023/01/11 09:38:28;;;;;;;2.90;2.08;;;22.30;99.90;;;;;;1878840;74;21872;-70
2023/01/11 09:41:07;;;;;;;5.92;2.92;;;22.30;99.90;;;;;;1881917;74;21513;-70
2023/01/11 09:43:39;;;;;;;3.15;2.45;;;22.30;99.90;;;;;;1834827;76;21526;-88
2023/01/11 09:46:12;;;;;;;3.02;2.33;;;22.30;99.90;;;;;;1841438;76;21199;-89
2023/01/11 09:48:52;;;;;;;3.52;2.42;;;22.30;99.90;;;;;;1838380;76;21197;-83
2023/01/11 09:51:25;;;;;;;4.83;2.72;;;22.20;99.90;;;;;;1824865;77;21168;-88
2023/01/11 09:53:58;;;;;;;3.30;2.42;;;22.30;99.90;;;;;;1826828;77;21669;-88
2023/01/11 09:56:32;;;;;;;3.47;1.80;;;22.30;99.90;;;;;;1835718;76;21166;-86
2023/01/11 09:59:23;;;;;;;4.72;2.20;;;22.20;99.90;;;;;;1844248;76;21167;-86
2023/01/11 10:02:00;;;;;;;2.25;1.55;;;22.20;99.90;;;;;;1839599;76;21179;-87
2023/01/11 10:04:55;;;;;;;3.02;2.10;;;22.20;99.90;;;;;;1837849;76;21191;-86
2023/01/11 10:07:36;;;;;;;3.02;2.00;;;22.20;99.90;;;;;;1845839;76;21094;-86
2023/01/11 10:10:28;;;;;;;3.42;2.60;;;22.20;99.90;;;;;;1821881;75;21096;-86
2023/01/11 10:13:31;;;;;;;2.98;2.20;;;22.20;99.90;;;;;;1824938;76;21126;-87
2023/01/11 10:16:19;;;;;;;1.82;1.30;;;22.20;99.90;;;;;;1836529;76;21178;-87
2023/01/11 10:19:12;;;;;;;3.05;1.90;;;22.20;99.90;;;;;;1845176;76;21253;-84
2023/01/11 10:21:46;;;;;;;3.25;1.80;;;22.20;99.90;;;;;;1818981;77;21178;-87
2023/01/11 10:24:24;;;;;;;2.52;1.77;;;22.20;99.90;;;;;;1843741;76;21179;-87
2023/01/11 10:26:57;;;;;;;3.42;1.77;;;22.20;99.90;;;;;;1835893;76;21072;-87
2023/01/11 10:36:29;;;;;;;3.20;2.33;;;22.10;99.90;;;;;;1829037;76;21071;-86
2023/01/11 10:38:35;;;;;;;3.90;2.00;;;22.20;99.90;;;;;;1808495;77;21179;-87
2023/01/11 10:41:19;;;;;;;3.10;2.40;;;22.10;99.90;;;;;;1843233;76;21093;-87
2023/01/11 10:43:49;;;;;;;4.12;2.80;;;22.10;99.90;;;;;;1812234;78;21084;-88
2023/01/11 10:46:28;;;;;;;3.30;2.42;;;22.10;99.90;;;;;;1822179;76;21200;-88
2023/01/11 10:49:30;;;;;;;4.50;3.17;;;22.10;99.90;;;;;;1806536;78;21186;-89
2023/01/11 10:52:26;;;;;;;5.08;3.00;;;22.10;99.90;;;;;;1833480;77;21131;-89
2023/01/11 10:55:01;;;;;;;4.45;3.55;;;22.10;99.90;;;;;;1831479;77;22094;-89
2023/01/11 10:57:37;;;;;;;4.37;3.98;;;22.10;99.90;;;;;;1826542;77;21539;-87
2023/01/11 11:00:27;;;;;;;3.83;3.52;;;22.10;99.90;;;;;;1815891;77;21060;-88
2023/01/11 11:03:15;;;;;;;4.58;3.70;;;22.10;99.90;;;;;;1841359;76;21579;-89
2023/01/11 11:06:04;;;;;;;3.60;2.87;;;22.00;99.90;;;;;;1830016;77;21173;-86
2023/01/11 11:08:49;;;;;;;2.80;2.40;;;22.00;99.90;;;;;;1846278;76;21086;-88
2023/01/11 11:11:30;;;;;;;3.67;2.60;;;22.00;99.90;;;;;;1823746;77;21142;-88
2023/01/11 11:14:23;;;;;;;2.60;2.10;;;22.00;99.90;;;;;;1834598;77;21100;-88
2023/01/11 11:17:03;;;;;;;2.92;1.70;;;22.00;99.90;;;;;;1828653;77;21126;-88
2023/01/11 11:19:40;;;;;;;2.17;1.60;;;22.00;99.90;;;;;;1824691;77;21083;-87
2023/01/11 11:22:14;;;;;;;3.27;2.40;;;22.00;99.90;;;;;;1823167;77;21655;-88
2023/01/11 11:25:06;;;;;;;3.33;1.90;;;22.00;99.90;;;;;;1807728;79;21148;-87
2023/01/11 11:27:48;;;;;;;4.92;2.60;;;22.00;99.90;;;;;;1822330;77;21190;-88
2023/01/11 11:30:41;;;;;;;4.25;2.77;;;21.90;99.90;;;;;;1840849;77;21116;-84
2023/01/11 11:33:33;;;;;;;3.15;2.22;;;21.90;99.90;;;;;;1825814;77;21072;-86
2023/01/11 11:36:11;;;;;;;3.70;2.92;;;21.90;99.90;;;;;;1833024;76;21181;-86
2023/01/11 11:38:44;;;;;;;;;;;21.90;99.90;;;;;;1835262;76;21178;-87
2023/01/11 11:41:18;;;;;;;3.55;2.52;;;21.90;99.90;;;;;;1829175;78;20121;-87
2023/01/11 11:43:50;;;;;;;3.92;2.98;;;21.90;99.90;;;;;;1839962;77;21192;-84
2023/01/11 11:46:31;;;;;;;4.50;3.05;;;21.90;99.90;;;;;;1832130;76;21137;-86
2023/01/11 11:49:12;;;;;;;6.15;2.27;;;21.90;99.90;;;;;;1854995;75;21135;-85
2023/01/11 11:51:46;;;;;;;3.27;2.37;;;21.90;99.90;;;;;;1837181;77;21187;-83
2023/01/11 11:54:19;;;;;;;3.55;2.27;;;22.00;99.90;;;;;;1850473;77;21772;-84
2023/01/11 11:56:51;;;;;;;3.02;1.98;;;21.90;99.90;;;;;;1809822;77;21147;-84
2023/01/11 11:59:23;;;;;;;3.20;2.58;;;21.90;99.90;;;;;;1873017;75;21196;-85
2023/01/11 12:02:03;;;;;;;5.83;3.30;;;21.90;99.90;;;;;;1848401;75;21116;-84
2023/01/11 12:04:42;;;;;;;4.03;3.10;;;21.90;99.90;;;;;;1854637;75;21174;-85
2023/01/11 12:07:24;;;;;;;7.17;3.45;;;21.90;99.90;;;;;;1876496;75;21162;-84
2023/01/11 12:10:03;;;;;;;5.83;4.42;;;21.90;99.90;;;;;;1879324;75;21130;-85
2023/01/11 12:12:36;;;;;;;3.77;2.42;;;21.90;99.90;;;;;;1877695;75;21677;-85
2023/01/11 12:15:18;;;;;;;3.98;2.55;;;21.90;99.90;;;;;;1879025;76;21181;-86
2023/01/11 12:17:51;;;;;;;4.45;2.50;;;21.90;99.90;;;;;;1844249;76;21169;-85
2023/01/11 12:20:27;;;;;;;4.12;2.60;;;21.90;99.90;;;;;;1791821;77;21265;-85
2023/01/11 12:23:20;;;;;;;5.55;2.65;;;21.90;99.90;;;;;;1819462;77;21069;-85
2023/01/11 12:26:15;;;;;;;4.30;2.92;;;21.90;99.90;;;;;;1828017;78;21597;-85
2023/01/11 12:28:55;;;;;;;3.37;3.00;;;21.90;99.90;;;;;;1816156;78;21148;-86
2023/01/11 12:31:37;;;;;;;4.60;3.55;;;21.90;99.90;;;;;;1812714;77;21100;-86
2023/01/11 12:34:32;;;;;;;5.58;3.72;;;21.90;99.90;;;;;;1868194;75;21098;-86
2023/01/11 12:37:19;;;;;;;3.92;3.12;;;21.90;99.90;;;;;;1879816;75;21162;-86
2023/01/11 12:40:01;;;;;;;5.12;3.47;;;21.90;99.90;;;;;;1863531;76;21065;-87
2023/01/11 12:42:52;;;;;;;4.00;3.62;;;21.90;99.90;;;;;;1902687;74;21052;-85
2023/01/11 12:45:43;;;;;;;5.60;3.85;;;21.90;99.90;;;;;;1894881;74;21170;-85
2023/01/11 12:48:22;;;;;;;5.22;3.85;;;21.90;99.90;;;;;;1901872;74;21548;-86
2023/01/11 12:51:01;;;;;;;5.55;4.42;;;21.90;99.90;;;;;;1898455;74;21076;-86
2023/01/11 12:53:41;;;;;;;4.28;3.83;;;21.90;99.90;;;;;;1864807;76;21080;-85
2023/01/11 12:56:38;;;;;;;7.10;4.58;;;21.90;99.90;;;;;;1860638;75;21089;-85
2023/01/11 12:59:29;;;;;;;7.95;4.22;;;21.90;99.90;;;;;;1904749;74;21067;-86
2023/01/11 13:02:03;;;;;;;4.87;4.37;;;21.90;99.90;;;;;;1864722;76;21202;-84
2023/01/11 13:04:42;;;;;;;4.65;4.10;;;21.90;99.90;;;;;;1899008;74;21174;-87
2023/01/11 13:07:18;;;;;;;6.92;4.60;;;21.90;99.90;;;;;;1901845;74;21158;-85
2023/01/11 13:09:52;;;;;;;7.53;4.92;;;21.90;99.90;;;;;;1900873;74;21111;-86
2023/01/11 13:12:32;;;;;;;6.47;4.60;;;21.90;99.90;;;;;;1872105;74;21505;-86
2023/01/11 13:15:18;;;;;;;6.15;5.22;;;21.90;99.90;;;;;;1904283;74;21123;-85
2023/01/11 13:17:54;;;;;;;6.37;4.83;;;21.90;99.90;;;;;;1905609;74;21091;-85
2023/01/11 13:20:32;;;;;;;6.90;4.87;;;21.90;99.90;;;;;;1900260;74;21107;-86
2023/01/11 13:23:09;;;;;;;6.60;4.87;;;21.90;99.90;;;;;;1879101;74;21203;-87
2023/01/11 13:25:43;;;;;;;11.18;6.47;;;21.90;99.90;;;;;;1863613;76;21109;-84
2023/01/11 13:28:39;;;;;;;6.15;4.83;;;21.90;99.90;;;;;;1855125;75;21729;-89
2023/01/11 13:31:14;;;;;;;6.15;4.70;;;21.90;99.90;;;;;;1820073;77;21123;-88
2023/01/11 13:33:51;;;;;;;5.15;4.25;;;21.90;99.90;;;;;;1895036;74;21264;-89
2023/01/11 13:36:25;;;;;;;6.05;4.50;;;21.90;99.90;;;;;;1898036;74;21181;-86
2023/01/11 13:39:27;;;;;;;9.33;4.80;;;21.90;99.90;;;;;;1875419;75;21139;-88
2023/01/11 13:42:02;;;;;;;6.08;4.17;;;21.90;99.90;;;;;;1801182;77;21197;-87
2023/01/11 13:44:48;;;;;;;6.65;4.67;;;21.90;99.90;;;;;;1880095;75;21146;-89
2023/01/11 13:47:23;;;;;;;5.08;4.33;;;21.90;99.90;;;;;;1861743;75;21571;-91
2023/01/11 13:50:26;;;;;;;5.30;4.70;;;21.90;99.90;;;;;;1820821;77;21165;-90
2023/01/11 13:53:09;;;;;;;7.78;5.05;;;21.90;99.90;;;;;;1821686;77;21678;-88
2023/01/11 13:55:49;;;;;;;6.97;5.50;;;21.90;99.90;;;;;;1800236;77;21090;-89
2023/01/11 13:58:24;;;;;;;7.33;5.75;;;21.90;99.90;;;;;;1807984;77;21187;-88
2023/01/11 14:01:07;;;;;;;7.83;5.78;;;21.90;99.90;;;;;;1817974;77;21212;-88